sensor_id;sensor_type;location;lat;lon;timestamp;temperature;humidity
14873;DHT22;7528;48.576;19.122;2022-07-23T00:04:16;25.50;54.40
14873;DHT22;7528;48.576;19.122;2022-07-23T00:09:19;25.40;54.30
14873;DHT22;7528;48.576;19.122;2022-07-23T00:14:24;25.30;54.60
14873;DHT22;7528;48.576;19.122;2022-07-23T00:19:28;25.30;54.80
14873;DHT22;7528;48.576;19.122;2022-07-23T00:24:32;25.20;55.10
14873;DHT22;7528;48.576;19.122;2022-07-23T00:29:37;25.20;55.00
14873;DHT22;7528;48.576;19.122;2022-07-23T00:34:41;25.10;55.30
14873;DHT22;7528;48.576;19.122;2022-07-23T00:39:45;25.10;55.40
14873;DHT22;7528;48.576;19.122;2022-07-23T00:44:49;25.10;55.30
14873;DHT22;7528;48.576;19.122;2022-07-23T00:49:53;25.00;55.60
14873;DHT22;7528;48.576;19.122;2022-07-23T00:54:57;24.80;56.00
14873;DHT22;7528;48.576;19.122;2022-07-23T01:00:03;24.60;56.20
14873;DHT22;7528;48.576;19.122;2022-07-23T01:05:08;24.70;56.30
14873;DHT22;7528;48.576;19.122;2022-07-23T01:10:11;24.50;56.50
14873;DHT22;7528;48.576;19.122;2022-07-23T01:15:32;24.50;56.60
14873;DHT22;7528;48.576;19.122;2022-07-23T01:20:37;24.40;56.90
14873;DHT22;7528;48.576;19.122;2022-07-23T01:25:49;24.30;57.40
14873;DHT22;7528;48.576;19.122;2022-07-23T01:30:55;24.30;57.60
14873;DHT22;7528;48.576;19.122;2022-07-23T01:35:58;24.20;57.60
14873;DHT22;7528;48.576;19.122;2022-07-23T01:41:04;24.10;57.70
14873;DHT22;7528;48.576;19.122;2022-07-23T01:46:08;24.10;57.80
14873;DHT22;7528;48.576;19.122;2022-07-23T01:51:17;24.00;57.80
14873;DHT22;7528;48.576;19.122;2022-07-23T01:56:30;23.90;58.20
14873;DHT22;7528;48.576;19.122;2022-07-23T02:01:34;23.80;58.40
14873;DHT22;7528;48.576;19.122;2022-07-23T02:06:38;23.70;58.70
14873;DHT22;7528;48.576;19.122;2022-07-23T02:11:43;23.70;58.80
14873;DHT22;7528;48.576;19.122;2022-07-23T02:16:47;23.60;59.10
14873;DHT22;7528;48.576;19.122;2022-07-23T02:21:50;23.50;59.40
14873;DHT22;7528;48.576;19.122;2022-07-23T02:26:56;23.40;60.30
14873;DHT22;7528;48.576;19.122;2022-07-23T02:32:00;23.30;59.80
14873;DHT22;7528;48.576;19.122;2022-07-23T02:37:04;23.40;59.80
14873;DHT22;7528;48.576;19.122;2022-07-23T02:42:09;23.20;60.00
14873;DHT22;7528;48.576;19.122;2022-07-23T02:47:13;23.20;60.10
14873;DHT22;7528;48.576;19.122;2022-07-23T02:52:17;23.20;60.20
14873;DHT22;7528;48.576;19.122;2022-07-23T02:57:22;23.20;60.80
14873;DHT22;7528;48.576;19.122;2022-07-23T03:02:26;23.10;61.20
14873;DHT22;7528;48.576;19.122;2022-07-23T03:07:29;23.00;61.20
14873;DHT22;7528;48.576;19.122;2022-07-23T03:12:34;22.80;61.70
14873;DHT22;7528;48.576;19.122;2022-07-23T03:17:38;22.90;61.80
14873;DHT22;7528;48.576;19.122;2022-07-23T03:22:43;22.80;61.90
14873;DHT22;7528;48.576;19.122;2022-07-23T03:27:48;22.80;62.10
14873;DHT22;7528;48.576;19.122;2022-07-23T03:32:51;22.80;63.00
14873;DHT22;7528;48.576;19.122;2022-07-23T03:37:55;22.70;62.70
14873;DHT22;7528;48.576;19.122;2022-07-23T03:43:03;22.70;62.90
14873;DHT22;7528;48.576;19.122;2022-07-23T03:48:06;22.70;62.90
14873;DHT22;7528;48.576;19.122;2022-07-23T03:53:10;22.80;63.30
14873;DHT22;7528;48.576;19.122;2022-07-23T03:58:14;22.90;62.90
14873;DHT22;7528;48.576;19.122;2022-07-23T04:03:19;22.80;63.00
14873;DHT22;7528;48.576;19.122;2022-07-23T04:08:23;22.80;63.70
14873;DHT22;7528;48.576;19.122;2022-07-23T04:13:30;22.80;64.00
14873;DHT22;7528;48.576;19.122;2022-07-23T04:18:36;22.70;64.20
14873;DHT22;7528;48.576;19.122;2022-07-23T04:23:48;22.80;64.10
14873;DHT22;7528;48.576;19.122;2022-07-23T04:28:53;23.00;64.20
14873;DHT22;7528;48.576;19.122;2022-07-23T04:33:56;23.10;63.70
14873;DHT22;7528;48.576;19.122;2022-07-23T04:38:59;23.20;63.90
14873;DHT22;7528;48.576;19.122;2022-07-23T04:44:04;23.30;63.80
14873;DHT22;7528;48.576;19.122;2022-07-23T04:49:09;23.30;64.30
14873;DHT22;7528;48.576;19.122;2022-07-23T04:54:12;23.40;64.40
14873;DHT22;7528;48.576;19.122;2022-07-23T04:59:17;23.50;64.50
14873;DHT22;7528;48.576;19.122;2022-07-23T05:04:25;23.60;63.70
14873;DHT22;7528;48.576;19.122;2022-07-23T05:09:28;23.60;64.00
14873;DHT22;7528;48.576;19.122;2022-07-23T05:14:33;23.70;63.60
14873;DHT22;7528;48.576;19.122;2022-07-23T05:19:37;23.80;63.80
14873;DHT22;7528;48.576;19.122;2022-07-23T05:24:41;23.80;63.70
14873;DHT22;7528;48.576;19.122;2022-07-23T05:29:46;23.90;63.80
14873;DHT22;7528;48.576;19.122;2022-07-23T05:34:50;24.10;63.20
14873;DHT22;7528;48.576;19.122;2022-07-23T05:40:00;24.30;62.20
14873;DHT22;7528;48.576;19.122;2022-07-23T05:45:07;24.30;61.20
14873;DHT22;7528;48.576;19.122;2022-07-23T05:50:15;24.50;60.70
14873;DHT22;7528;48.576;19.122;2022-07-23T05:55:23;24.70;60.20
14873;DHT22;7528;48.576;19.122;2022-07-23T06:00:28;24.80;59.90
14873;DHT22;7528;48.576;19.122;2022-07-23T06:05:32;24.70;59.90
14873;DHT22;7528;48.576;19.122;2022-07-23T06:10:36;24.80;60.00
14873;DHT22;7528;48.576;19.122;2022-07-23T06:15:41;24.90;59.30
14873;DHT22;7528;48.576;19.122;2022-07-23T06:20:44;25.00;59.10
14873;DHT22;7528;48.576;19.122;2022-07-23T06:25:48;25.20;59.30
14873;DHT22;7528;48.576;19.122;2022-07-23T06:30:53;25.30;58.20
14873;DHT22;7528;48.576;19.122;2022-07-23T06:36:00;25.50;58.30
14873;DHT22;7528;48.576;19.122;2022-07-23T06:41:03;25.70;57.60
14873;DHT22;7528;48.576;19.122;2022-07-23T06:46:08;25.90;56.80
14873;DHT22;7528;48.576;19.122;2022-07-23T06:51:12;25.90;57.10
14873;DHT22;7528;48.576;19.122;2022-07-23T06:56:15;26.10;56.10
14873;DHT22;7528;48.576;19.122;2022-07-23T07:01:21;26.10;56.00
14873;DHT22;7528;48.576;19.122;2022-07-23T07:06:24;26.30;55.90
14873;DHT22;7528;48.576;19.122;2022-07-23T07:11:27;26.60;55.10
14873;DHT22;7528;48.576;19.122;2022-07-23T07:16:31;26.80;54.70
14873;DHT22;7528;48.576;19.122;2022-07-23T07:21:35;27.10;54.50
14873;DHT22;7528;48.576;19.122;2022-07-23T07:26:39;27.30;53.90
14873;DHT22;7528;48.576;19.122;2022-07-23T07:31:44;27.50;53.30
14873;DHT22;7528;48.576;19.122;2022-07-23T07:36:47;27.70;53.10
14873;DHT22;7528;48.576;19.122;2022-07-23T07:41:52;27.90;52.30
14873;DHT22;7528;48.576;19.122;2022-07-23T07:46:56;28.10;52.20
14873;DHT22;7528;48.576;19.122;2022-07-23T07:52:00;28.30;51.30
14873;DHT22;7528;48.576;19.122;2022-07-23T07:57:04;28.50;51.60
14873;DHT22;7528;48.576;19.122;2022-07-23T08:02:08;28.90;50.70
14873;DHT22;7528;48.576;19.122;2022-07-23T08:07:12;29.20;49.00
14873;DHT22;7528;48.576;19.122;2022-07-23T08:12:15;29.50;49.10
14873;DHT22;7528;48.576;19.122;2022-07-23T08:17:20;29.80;48.70
14873;DHT22;7528;48.576;19.122;2022-07-23T08:22:23;30.00;47.90
14873;DHT22;7528;48.576;19.122;2022-07-23T08:27:26;30.50;45.80
14873;DHT22;7528;48.576;19.122;2022-07-23T08:32:31;30.70;46.10
14873;DHT22;7528;48.576;19.122;2022-07-23T08:37:34;31.00;44.70
14873;DHT22;7528;48.576;19.122;2022-07-23T08:42:38;31.20;43.20
14873;DHT22;7528;48.576;19.122;2022-07-23T08:47:43;31.30;43.10
14873;DHT22;7528;48.576;19.122;2022-07-23T08:52:48;31.40;43.40
14873;DHT22;7528;48.576;19.122;2022-07-23T08:57:53;31.60;42.80
14873;DHT22;7528;48.576;19.122;2022-07-23T09:02:58;31.70;43.00
14873;DHT22;7528;48.576;19.122;2022-07-23T09:08:06;31.90;42.10
14873;DHT22;7528;48.576;19.122;2022-07-23T09:13:33;32.20;41.90
14873;DHT22;7528;48.576;19.122;2022-07-23T09:18:40;32.50;41.50
14873;DHT22;7528;48.576;19.122;2022-07-23T09:23:48;32.90;40.50
14873;DHT22;7528;48.576;19.122;2022-07-23T09:28:54;33.10;39.70
14873;DHT22;7528;48.576;19.122;2022-07-23T09:34:10;33.30;38.50
14873;DHT22;7528;48.576;19.122;2022-07-23T09:39:15;33.60;38.30
14873;DHT22;7528;48.576;19.122;2022-07-23T09:44:21;33.90;36.90
14873;DHT22;7528;48.576;19.122;2022-07-23T09:49:26;34.30;36.70
14873;DHT22;7528;48.576;19.122;2022-07-23T09:54:32;34.70;36.30
14873;DHT22;7528;48.576;19.122;2022-07-23T09:59:38;34.90;35.80
14873;DHT22;7528;48.576;19.122;2022-07-23T10:04:43;35.30;34.40
14873;DHT22;7528;48.576;19.122;2022-07-23T10:09:57;35.40;34.40
14873;DHT22;7528;48.576;19.122;2022-07-23T10:15:22;35.60;33.70
14873;DHT22;7528;48.576;19.122;2022-07-23T10:20:28;35.70;33.00
14873;DHT22;7528;48.576;19.122;2022-07-23T10:25:38;35.70;32.60
14873;DHT22;7528;48.576;19.122;2022-07-23T10:30:48;35.80;33.60
14873;DHT22;7528;48.576;19.122;2022-07-23T10:36:02;35.80;33.70
14873;DHT22;7528;48.576;19.122;2022-07-23T10:41:07;36.10;33.00
14873;DHT22;7528;48.576;19.122;2022-07-23T10:46:28;36.60;32.20
14873;DHT22;7528;48.576;19.122;2022-07-23T10:51:39;36.90;32.10
14873;DHT22;7528;48.576;19.122;2022-07-23T10:57:07;37.10;30.90
14873;DHT22;7528;48.576;19.122;2022-07-23T11:02:22;37.30;31.70
14873;DHT22;7528;48.576;19.122;2022-07-23T11:08:13;37.20;31.40
14873;DHT22;7528;48.576;19.122;2022-07-23T11:13:44;37.10;32.00
14873;DHT22;7528;48.576;19.122;2022-07-23T11:19:02;37.00;33.40
14873;DHT22;7528;48.576;19.122;2022-07-23T11:24:09;36.80;33.10
14873;DHT22;7528;48.576;19.122;2022-07-23T11:29:48;36.70;32.00
14873;DHT22;7528;48.576;19.122;2022-07-23T11:34:54;36.70;31.60
14873;DHT22;7528;48.576;19.122;2022-07-23T11:39:59;36.80;32.20
14873;DHT22;7528;48.576;19.122;2022-07-23T11:45:05;37.10;32.80
14873;DHT22;7528;48.576;19.122;2022-07-23T11:50:09;37.30;31.10
14873;DHT22;7528;48.576;19.122;2022-07-23T11:55:22;37.50;31.10
14873;DHT22;7528;48.576;19.122;2022-07-23T12:00:30;37.60;30.80
14873;DHT22;7528;48.576;19.122;2022-07-23T12:05:57;37.50;31.90
14873;DHT22;7528;48.576;19.122;2022-07-23T12:11:13;37.50;31.60
14873;DHT22;7528;48.576;19.122;2022-07-23T12:16:27;37.40;31.00
14873;DHT22;7528;48.576;19.122;2022-07-23T12:21:31;37.30;31.80
14873;DHT22;7528;48.576;19.122;2022-07-23T12:26:37;37.30;30.90
14873;DHT22;7528;48.576;19.122;2022-07-23T12:31:40;37.20;31.80
14873;DHT22;7528;48.576;19.122;2022-07-23T12:36:44;37.30;32.00
14873;DHT22;7528;48.576;19.122;2022-07-23T12:41:54;37.50;31.40
14873;DHT22;7528;48.576;19.122;2022-07-23T12:47:05;37.60;30.30
14873;DHT22;7528;48.576;19.122;2022-07-23T12:52:16;37.40;30.30
14873;DHT22;7528;48.576;19.122;2022-07-23T12:57:46;37.40;30.30
14873;DHT22;7528;48.576;19.122;2022-07-23T13:02:50;37.30;30.70
14873;DHT22;7528;48.576;19.122;2022-07-23T13:07:54;37.10;31.20
14873;DHT22;7528;48.576;19.122;2022-07-23T13:13:02;37.00;31.60
14873;DHT22;7528;48.576;19.122;2022-07-23T13:18:06;37.00;32.30
14873;DHT22;7528;48.576;19.122;2022-07-23T13:23:11;37.20;31.90
14873;DHT22;7528;48.576;19.122;2022-07-23T13:28:29;37.40;31.30
14873;DHT22;7528;48.576;19.122;2022-07-23T13:33:32;37.50;31.00
14873;DHT22;7528;48.576;19.122;2022-07-23T13:38:37;37.60;31.00
14873;DHT22;7528;48.576;19.122;2022-07-23T13:43:52;37.60;30.80
14873;DHT22;7528;48.576;19.122;2022-07-23T13:48:55;37.50;30.80
14873;DHT22;7528;48.576;19.122;2022-07-23T13:53:59;37.30;31.00
14873;DHT22;7528;48.576;19.122;2022-07-23T13:59:05;37.30;31.00
14873;DHT22;7528;48.576;19.122;2022-07-23T14:04:08;37.40;30.30
14873;DHT22;7528;48.576;19.122;2022-07-23T14:09:12;37.60;30.20
14873;DHT22;7528;48.576;19.122;2022-07-23T14:14:17;37.60;29.70
14873;DHT22;7528;48.576;19.122;2022-07-23T14:19:21;37.80;30.00
14873;DHT22;7528;48.576;19.122;2022-07-23T14:24:25;37.80;29.90
14873;DHT22;7528;48.576;19.122;2022-07-23T14:29:32;37.60;29.60
14873;DHT22;7528;48.576;19.122;2022-07-23T14:34:35;37.30;29.80
14873;DHT22;7528;48.576;19.122;2022-07-23T14:39:41;37.10;30.20
14873;DHT22;7528;48.576;19.122;2022-07-23T14:44:51;37.00;31.10
14873;DHT22;7528;48.576;19.122;2022-07-23T14:49:54;36.80;30.80
14873;DHT22;7528;48.576;19.122;2022-07-23T14:54:57;36.80;31.30
14873;DHT22;7528;48.576;19.122;2022-07-23T15:00:03;36.80;31.20
14873;DHT22;7528;48.576;19.122;2022-07-23T15:05:08;36.70;32.20
14873;DHT22;7528;48.576;19.122;2022-07-23T15:10:11;36.50;31.90
14873;DHT22;7528;48.576;19.122;2022-07-23T15:15:15;36.60;31.90
14873;DHT22;7528;48.576;19.122;2022-07-23T15:20:19;36.40;32.60
14873;DHT22;7528;48.576;19.122;2022-07-23T15:25:22;36.30;32.50
14873;DHT22;7528;48.576;19.122;2022-07-23T15:30:28;36.20;33.10
14873;DHT22;7528;48.576;19.122;2022-07-23T15:35:32;36.30;33.50
14873;DHT22;7528;48.576;19.122;2022-07-23T15:40:36;36.10;33.90
14873;DHT22;7528;48.576;19.122;2022-07-23T15:45:41;36.00;34.10
14873;DHT22;7528;48.576;19.122;2022-07-23T15:50:44;36.00;34.60
14873;DHT22;7528;48.576;19.122;2022-07-23T15:55:47;35.80;35.00
14873;DHT22;7528;48.576;19.122;2022-07-23T16:00:52;35.70;35.30
14873;DHT22;7528;48.576;19.122;2022-07-23T16:05:55;35.60;35.80
14873;DHT22;7528;48.576;19.122;2022-07-23T16:10:58;35.60;35.90
14873;DHT22;7528;48.576;19.122;2022-07-23T16:16:03;35.50;35.90
14873;DHT22;7528;48.576;19.122;2022-07-23T16:21:08;35.30;36.50
14873;DHT22;7528;48.576;19.122;2022-07-23T16:26:11;35.20;36.70
14873;DHT22;7528;48.576;19.122;2022-07-23T16:31:16;35.10;36.70
14873;DHT22;7528;48.576;19.122;2022-07-23T16:36:20;35.00;37.20
14873;DHT22;7528;48.576;19.122;2022-07-23T16:41:24;34.80;37.60
14873;DHT22;7528;48.576;19.122;2022-07-23T16:46:29;34.50;37.80
14873;DHT22;7528;48.576;19.122;2022-07-23T16:51:33;34.10;37.00
14873;DHT22;7528;48.576;19.122;2022-07-23T16:56:37;33.70;37.70
14873;DHT22;7528;48.576;19.122;2022-07-23T17:01:42;33.40;37.90
14873;DHT22;7528;48.576;19.122;2022-07-23T17:06:45;33.00;38.20
14873;DHT22;7528;48.576;19.122;2022-07-23T17:11:48;32.70;38.30
14873;DHT22;7528;48.576;19.122;2022-07-23T17:16:54;32.50;38.30
14873;DHT22;7528;48.576;19.122;2022-07-23T17:21:59;32.20;38.80
14873;DHT22;7528;48.576;19.122;2022-07-23T17:27:14;32.00;39.70
14873;DHT22;7528;48.576;19.122;2022-07-23T17:32:19;31.90;40.00
14873;DHT22;7528;48.576;19.122;2022-07-23T17:37:24;31.70;39.90
14873;DHT22;7528;48.576;19.122;2022-07-23T17:42:28;31.60;39.90
14873;DHT22;7528;48.576;19.122;2022-07-23T17:47:34;31.60;40.40
14873;DHT22;7528;48.576;19.122;2022-07-23T17:52:44;31.50;40.90
14873;DHT22;7528;48.576;19.122;2022-07-23T17:57:47;31.60;41.40
14873;DHT22;7528;48.576;19.122;2022-07-23T18:02:53;31.60;41.50
14873;DHT22;7528;48.576;19.122;2022-07-23T18:07:57;31.60;41.90
14873;DHT22;7528;48.576;19.122;2022-07-23T18:13:01;31.60;42.20
14873;DHT22;7528;48.576;19.122;2022-07-23T18:18:07;31.70;42.20
14873;DHT22;7528;48.576;19.122;2022-07-23T18:23:10;31.60;42.70
14873;DHT22;7528;48.576;19.122;2022-07-23T18:28:15;31.60;43.00
14873;DHT22;7528;48.576;19.122;2022-07-23T18:33:20;31.60;43.40
14873;DHT22;7528;48.576;19.122;2022-07-23T18:38:24;31.60;43.30
14873;DHT22;7528;48.576;19.122;2022-07-23T18:43:28;31.50;43.40
14873;DHT22;7528;48.576;19.122;2022-07-23T18:48:36;31.50;43.10
14873;DHT22;7528;48.576;19.122;2022-07-23T18:53:43;31.30;43.00
14873;DHT22;7528;48.576;19.122;2022-07-23T18:58:47;31.30;43.40
14873;DHT22;7528;48.576;19.122;2022-07-23T19:03:54;31.20;43.70
14873;DHT22;7528;48.576;19.122;2022-07-23T19:08:58;31.20;43.80
14873;DHT22;7528;48.576;19.122;2022-07-23T19:14:31;31.20;43.70
14873;DHT22;7528;48.576;19.122;2022-07-23T19:20:36;31.00;44.10
14873;DHT22;7528;48.576;19.122;2022-07-23T19:26:12;30.90;44.40
14873;DHT22;7528;48.576;19.122;2022-07-23T19:31:16;30.70;45.40
14873;DHT22;7528;48.576;19.122;2022-07-23T19:36:26;30.60;46.00
14873;DHT22;7528;48.576;19.122;2022-07-23T19:41:35;30.50;45.90
14873;DHT22;7528;48.576;19.122;2022-07-23T19:46:39;30.50;46.70
14873;DHT22;7528;48.576;19.122;2022-07-23T19:52:03;30.30;47.50
14873;DHT22;7528;48.576;19.122;2022-07-23T19:57:07;30.20;47.90
14873;DHT22;7528;48.576;19.122;2022-07-23T20:02:11;30.10;48.10
14873;DHT22;7528;48.576;19.122;2022-07-23T20:07:18;30.00;48.40
14873;DHT22;7528;48.576;19.122;2022-07-23T20:12:22;29.90;48.40
14873;DHT22;7528;48.576;19.122;2022-07-23T20:17:54;29.90;48.70
14873;DHT22;7528;48.576;19.122;2022-07-23T20:49:31;29.10;50.40
14873;DHT22;7528;48.576;19.122;2022-07-23T20:54:37;29.00;50.70
14873;DHT22;7528;48.576;19.122;2022-07-23T20:59:42;28.90;51.30
14873;DHT22;7528;48.576;19.122;2022-07-23T21:04:50;28.80;50.70
14873;DHT22;7528;48.576;19.122;2022-07-23T21:10:19;28.70;51.10
14873;DHT22;7528;48.576;19.122;2022-07-23T21:15:25;28.60;51.40
14873;DHT22;7528;48.576;19.122;2022-07-23T21:20:36;28.60;51.80
14873;DHT22;7528;48.576;19.122;2022-07-23T21:25:56;28.50;51.80
14873;DHT22;7528;48.576;19.122;2022-07-23T21:31:05;28.40;52.10
14873;DHT22;7528;48.576;19.122;2022-07-23T21:36:16;28.20;52.30
14873;DHT22;7528;48.576;19.122;2022-07-23T21:41:24;28.10;52.50
14873;DHT22;7528;48.576;19.122;2022-07-23T21:46:38;28.00;52.50
14873;DHT22;7528;48.576;19.122;2022-07-23T21:51:43;28.00;52.90
14873;DHT22;7528;48.576;19.122;2022-07-23T21:56:47;27.80;53.30
14873;DHT22;7528;48.576;19.122;2022-07-23T22:01:50;27.70;53.90
14873;DHT22;7528;48.576;19.122;2022-07-23T22:06:55;27.50;54.10
14873;DHT22;7528;48.576;19.122;2022-07-23T22:11:58;27.40;54.40
14873;DHT22;7528;48.576;19.122;2022-07-23T22:17:02;27.20;54.70
14873;DHT22;7528;48.576;19.122;2022-07-23T22:22:07;27.10;54.90
14873;DHT22;7528;48.576;19.122;2022-07-23T22:27:11;27.00;55.10
14873;DHT22;7528;48.576;19.122;2022-07-23T22:32:14;26.90;55.40
14873;DHT22;7528;48.576;19.122;2022-07-23T22:37:19;27.00;55.40
14873;DHT22;7528;48.576;19.122;2022-07-23T22:42:23;26.90;55.70
14873;DHT22;7528;48.576;19.122;2022-07-23T22:47:26;26.80;55.90
14873;DHT22;7528;48.576;19.122;2022-07-23T22:52:31;26.80;56.40
14873;DHT22;7528;48.576;19.122;2022-07-23T22:57:35;26.70;56.60
14873;DHT22;7528;48.576;19.122;2022-07-23T23:02:39;26.50;56.50
14873;DHT22;7528;48.576;19.122;2022-07-23T23:07:44;26.50;56.80
14873;DHT22;7528;48.576;19.122;2022-07-23T23:12:47;26.40;57.00
14873;DHT22;7528;48.576;19.122;2022-07-23T23:17:50;26.30;57.20
14873;DHT22;7528;48.576;19.122;2022-07-23T23:22:56;26.30;57.50
14873;DHT22;7528;48.576;19.122;2022-07-23T23:27:59;26.20;57.90
14873;DHT22;7528;48.576;19.122;2022-07-23T23:33:02;26.20;57.70
14873;DHT22;7528;48.576;19.122;2022-07-23T23:38:09;26.10;58.00
14873;DHT22;7528;48.576;19.122;2022-07-23T23:43:13;26.00;58.10
14873;DHT22;7528;48.576;19.122;2022-07-23T23:48:16;26.00;58.30
14873;DHT22;7528;48.576;19.122;2022-07-23T23:53:20;25.90;58.70
14873;DHT22;7528;48.576;19.122;2022-07-23T23:58:24;25.90;58.70
